TENAKEE SPRINGS AK US NWS current weather conditions

sailwx.info

Wind from 050 at 2 knots gusting 8

Air temperature -6.2° C
Dewpoint -14.9° C

Last reported at 2020-Jan-18 15:12 UTC.
Time now 2020-Jan-18 15:41 UTC

Location: N 57°47' W 135°13'.
View on Google Maps.

See reports from other nearby stations

  
Tides and Currents Weather Stations Pressure Air Temp Water Temp Dewpoint Dewpoint Depression Visibility Wind Speed Wind Dir Waves Ship Positions
date/time (UTC)wind fromknots sea level pressurealtimeterstation pressurevisibilityair tempwater tempwave heightnotes
2020-Jan-18 15:12 050 2 gusting 8 -6.2
2020-Jan-18 15:02 160 5 gusting 12 -6.3
2020-Jan-18 14:52 130 6 gusting 12 -6.6
2020-Jan-18 14:42 020 2 gusting 7 -6.8
2020-Jan-18 14:32 350 4 gusting 9 -6.8
2020-Jan-18 14:22 350 6 gusting 13 -6.9
2020-Jan-18 14:12 340 2 gusting 8 -6.8
2020-Jan-18 14:02 340 2 gusting 9 -6.8
2020-Jan-18 13:52 040 2 gusting 7 -6.7
2020-Jan-18 13:42 010 4 gusting 8 -6.9
2020-Jan-18 13:32 010 4 gusting 7 -6.9
2020-Jan-18 13:22 030 5 gusting 8 -7.0
2020-Jan-18 13:12 010 4 gusting 12 -7.0
2020-Jan-18 13:02 040 2 gusting 6 -7.0
2020-Jan-18 12:52 070 6 gusting 15 -7.3
2020-Jan-18 12:42 360 5 gusting 13 -7.4
2020-Jan-18 12:32 050 6 gusting 19 -7.5
2020-Jan-18 12:22 030 6 gusting 13 -7.6
2020-Jan-18 12:12 030 6 gusting 18 -7.5
2020-Jan-18 12:02 040 6 gusting 17 -7.5
2020-Jan-18 11:52 040 5 gusting 8 -7.4
2020-Jan-18 11:42 040 6 gusting 15 -7.5
2020-Jan-18 11:32 030 5 gusting 12 -7.6
2020-Jan-18 11:22 010 2 gusting 6 -7.6
2020-Jan-18 11:12 090 5 gusting 11 -7.5
2020-Jan-18 11:02 020 5 gusting 12 -7.7
2020-Jan-18 10:52 360 5 gusting 18 -7.7
2020-Jan-18 10:42 360 6 gusting 13 -7.9
2020-Jan-18 10:32 020 7 gusting 19 -7.9
2020-Jan-18 10:22 030 6 gusting 13 -8.0
2020-Jan-18 10:12 040 6 gusting 18 -8.0
2020-Jan-18 10:02 010 5 gusting 13 -8.0
2020-Jan-18 09:52 030 6 gusting 17 -8.0
2020-Jan-18 09:42 050 6 gusting 19 -7.9
2020-Jan-18 09:32 040 6 gusting 13 -7.9
2020-Jan-18 09:22 010 4 gusting 9 -7.9
2020-Jan-18 09:12 010 6 gusting 13 -7.9
2020-Jan-18 09:02 060 6 gusting 13 -7.9
2020-Jan-18 08:52 020 6 gusting 20 -7.9
2020-Jan-18 08:42 360 6 gusting 20 -7.9
2020-Jan-18 08:32 010 6 gusting 18 -8.0
2020-Jan-18 08:22 010 5 gusting 13 -8.0
2020-Jan-18 08:12 030 5 gusting 11 -8.1
2020-Jan-18 08:02 040 4 gusting 7 -8.3
2020-Jan-18 07:52 050 4 gusting 6 -8.2
2020-Jan-18 07:42 040 5 gusting 8 -8.1
2020-Jan-18 07:32 020 5 gusting 13 -8.1
2020-Jan-18 07:22 030 5 gusting 15 -8.3
2020-Jan-18 07:12 060 5 gusting 15 -8.4
2020-Jan-18 07:02 050 4 gusting 9 -8.7
2020-Jan-18 06:52 060 4 gusting 6 -8.6
2020-Jan-18 06:42 040 5 gusting 11 -8.5
2020-Jan-18 06:32 050 4 gusting 6 -8.2
2020-Jan-18 06:22 050 4 gusting 7 -8.0
2020-Jan-18 06:12 060 5 gusting 9 -8.0
2020-Jan-18 06:02 090 4 gusting 6 -8.2
2020-Jan-18 05:52 060 4 gusting 6 -8.6
2020-Jan-18 05:42 050 4 gusting 7 -8.8
2020-Jan-18 05:32 070 6 gusting 12 -9.1
2020-Jan-18 05:22 030 5 gusting 8 -9.2
2020-Jan-18 05:12 050 5 gusting 7 -9.2
2020-Jan-18 05:02 050 5 gusting 8 -9.4
2020-Jan-18 04:52 050 4 gusting 6 -9.3
2020-Jan-18 04:42 050 6 gusting 13 -9.1
2020-Jan-18 04:32 050 5 gusting 7 -9.5
2020-Jan-18 04:22 040 6 gusting 8 -9.7
2020-Jan-18 04:12 050 6 gusting 11 -9.9
2020-Jan-18 04:02 050 6 gusting 9 -10.1
2020-Jan-18 03:52 050 6 gusting 11 -10.3
2020-Jan-18 03:42 030 6 gusting 7 -10.2
2020-Jan-18 03:32 010 5 gusting 8 -10.2
2020-Jan-18 03:22 060 6 gusting 12 -9.8
2020-Jan-18 03:12 030 6 gusting 9 -9.7
2020-Jan-18 03:02 030 5 gusting 13 -9.7
2020-Jan-18 02:52 020 5 gusting 9 -10.0
2020-Jan-18 02:42 060 6 gusting 11 -10.1
2020-Jan-18 02:32 060 5 gusting 9 -10.1
2020-Jan-18 02:22 070 5 gusting 7 -10.2
2020-Jan-18 02:12 030 5 gusting 7 -10.0
2020-Jan-18 02:02 030 5 gusting 7 -10.1
2020-Jan-18 01:52 070 6 gusting 9 -10.1
2020-Jan-18 01:42 040 5 gusting 8 -9.7
2020-Jan-18 01:32 040 7 gusting 12 -9.5
2020-Jan-18 01:22 040 6 gusting 7 -9.6
2020-Jan-18 01:12 060 6 gusting 13 -9.4
2020-Jan-18 01:02 060 6 gusting 8 -9.1
2020-Jan-18 00:52 070 5 gusting 6 -8.8
2020-Jan-18 00:42 040 4 gusting 7 -8.2
2020-Jan-18 00:32 040 5 gusting 8 -7.6
2020-Jan-18 00:22 060 4 gusting 6 -6.6
2020-Jan-18 00:12 080 4 gusting 7 -5.9
2020-Jan-17 23:52 070 5 gusting 12 -6.1
2020-Jan-17 23:42 360 2 gusting 7 -6.2
2020-Jan-17 23:32 360 2 gusting 7 -5.7
2020-Jan-17 23:22 100 5 gusting 11 -5.3
2020-Jan-17 23:12 040 4 gusting 8 -6.0
2020-Jan-17 23:02 080 5 gusting 12 -5.7
2020-Jan-17 22:52 090 8 gusting 17 -6.0
2020-Jan-17 22:42 070 6 gusting 14 -5.3
2020-Jan-17 22:32 090 6 gusting 11 -5.3
2020-Jan-17 22:22 100 5 gusting 12 -5.4
2020-Jan-17 22:12 050 4 gusting 9 -5.9
2020-Jan-17 22:02 090 8 gusting 18 -6.7
2020-Jan-17 21:52 070 9 gusting 24 -6.5
2020-Jan-17 21:42 070 6 gusting 11 -6.5
2020-Jan-17 21:32 080 8 gusting 14 -6.7
2020-Jan-17 21:22 080 7 gusting 14 -7.0
2020-Jan-17 21:12 060 12 gusting 27 -7.4
2020-Jan-17 21:02 070 12 gusting 20 -7.6
2020-Jan-17 20:52 080 12 gusting 35 -7.5
2020-Jan-17 20:42 080 11 gusting 25 -7.6
2020-Jan-17 20:32 090 13 gusting 21 -7.8
2020-Jan-17 20:22 080 11 gusting 20 -7.7
2020-Jan-17 20:12 090 8 gusting 17 -8.0
2020-Jan-17 20:02 080 11 gusting 17 -8.7
2020-Jan-17 19:52 100 9 gusting 20 -9.3
2020-Jan-17 19:42 050 5 gusting 11 -9.5
2020-Jan-17 19:32 040 4 gusting 8 -9.4
2020-Jan-17 19:22 050 4 gusting 6 -9.5
2020-Jan-17 19:12 090 6 gusting 15 -9.8
2020-Jan-17 19:02 070 5 gusting 8 -10.2
2020-Jan-17 18:52 060 5 gusting 7 -10.2
2020-Jan-17 18:42 070 5 gusting 13 -10.1
2020-Jan-17 18:32 080 6 gusting 18 -10.4
2020-Jan-17 18:22 060 6 gusting 13 -10.7
2020-Jan-17 18:12 080 5 gusting 14 -10.6
2020-Jan-17 18:02 070 13 gusting 26 -10.5
2020-Jan-17 17:52 090 6 gusting 15 -11.2
2020-Jan-17 17:42 360 4 gusting 8 -10.9
2020-Jan-17 17:32 060 7 gusting 18 -10.4
2020-Jan-17 17:22 090 15 gusting 27 -10.2
2020-Jan-17 17:12 080 11 gusting 21 -10.4
2020-Jan-17 17:02 090 13 gusting 27 -10.2
2020-Jan-17 16:52 090 13 gusting 33 -10.5
2020-Jan-17 16:42 080 6 gusting 13 -10.7
2020-Jan-17 16:32 080 11 gusting 21 -10.4
2020-Jan-17 16:22 090 13 gusting 24 -10.5
2020-Jan-17 16:12 070 7 gusting 15 -10.9
2020-Jan-17 16:02 070 9 gusting 20 -10.7
2020-Jan-17 15:52 070 9 gusting 20 -10.7
2020-Jan-17 15:42 070 14 gusting 33 -10.6
2020-Jan-17 15:32 070 18 gusting 34 -10.6
2020-Jan-17 15:22 070 17 gusting 35 -10.6
2020-Jan-17 15:12 080 21 gusting 45 -10.6
2020-Jan-17 15:02 080 22 gusting 39 -10.6
2020-Jan-17 14:52 080 19 gusting 31 -10.5
2020-Jan-17 14:42 080 19 gusting 29 -10.6
2020-Jan-17 14:32 080 18 gusting 46 -10.6
2020-Jan-17 14:22 080 14 gusting 32 -10.7
2020-Jan-17 14:12 070 11 gusting 21 -10.8
2020-Jan-17 14:02 070 6 gusting 20 -11.1
2020-Jan-17 13:52 070 6 gusting 14 -10.8
2020-Jan-17 13:42 110 5 gusting 15 -10.7
2020-Jan-17 13:32 350 2 gusting 7 -10.7
2020-Jan-17 13:22 060 4 gusting 9 -10.6
2020-Jan-17 13:12 070 5 gusting 9 -10.5
2020-Jan-17 13:02 070 12 gusting 21 -10.4
2020-Jan-17 12:52 060 14 gusting 29 -10.5
2020-Jan-17 12:42 060 19 gusting 41 -10.5
2020-Jan-17 12:32 060 18 gusting 39 -10.4
2020-Jan-17 12:22 070 18 gusting 33 -10.5
2020-Jan-17 12:12 070 13 gusting 27 -10.4
2020-Jan-17 12:02 070 7 gusting 19 -10.4
2020-Jan-17 11:52 070 11 gusting 31 -10.5
2020-Jan-17 11:42 080 11 gusting 21 -10.4
2020-Jan-17 11:32 060 14 gusting 26 -10.5
2020-Jan-17 11:22 080 12 gusting 26 -10.6
2020-Jan-17 11:12 070 11 gusting 24 -10.7
2020-Jan-17 11:02 090 11 gusting 20 -10.4
2020-Jan-17 10:52 090 13 gusting 25 -10.3
2020-Jan-17 10:42 090 11 gusting 28 -10.3
2020-Jan-17 10:32 090 15 gusting 33 -10.3
2020-Jan-17 10:22 080 13 gusting 25 -10.3
2020-Jan-17 10:12 080 8 gusting 20 -10.2
2020-Jan-17 10:02 080 9 gusting 27 -10.1
2020-Jan-17 09:52 100 9 gusting 18 -10.1
2020-Jan-17 09:42 060 13 gusting 33 -10.2
2020-Jan-17 09:32 060 13 gusting 27 -10.2
2020-Jan-17 09:22 080 9 gusting 19 -10.2
2020-Jan-17 09:12 060 11 gusting 27 -10.3
2020-Jan-17 09:02 070 13 gusting 34 -10.2
2020-Jan-17 08:52 070 7 gusting 20 -10.2
2020-Jan-17 08:42 070 8 gusting 26 -10.2
2020-Jan-17 08:32 070 14 gusting 34 -10.1
2020-Jan-17 08:22 070 15 gusting 32 -10.1
2020-Jan-17 08:12 070 13 gusting 38 -9.9
2020-Jan-17 08:02 070 11 gusting 36 -10.0
2020-Jan-17 07:52 070 11 gusting 22 -9.9
2020-Jan-17 07:42 070 13 gusting 28 -9.9
2020-Jan-17 07:32 070 15 gusting 34 -9.9
2020-Jan-17 07:22 070 15 gusting 28 -9.9
2020-Jan-17 07:12 070 18 gusting 31 -9.8
2020-Jan-17 07:02 070 13 gusting 36 -9.9
2020-Jan-17 06:52 080 8 gusting 24 -10.0
2020-Jan-17 06:42 070 6 gusting 15 -10.1
2020-Jan-17 06:32 060 9 gusting 22 -10.1
2020-Jan-17 06:22 080 6 gusting 11 -10.0
2020-Jan-17 06:12 070 8 gusting 22 -10.0
2020-Jan-17 06:02 060 12 gusting 24 -10.0
2020-Jan-17 05:52 060 5 gusting 13 -9.9
2020-Jan-17 05:42 070 6 gusting 15 -9.8
2020-Jan-17 05:32 050 6 gusting 18 -9.7
2020-Jan-17 05:22 050 5 gusting 15 -9.7
2020-Jan-17 05:12 050 13 gusting 32 -9.6
2020-Jan-17 05:02 070 6 gusting 18 -9.4
2020-Jan-17 04:52 060 8 gusting 18 -9.4
2020-Jan-17 04:42 080 9 gusting 20 -9.2
2020-Jan-17 04:32 070 6 gusting 13 -9.0
2020-Jan-17 04:22 080 6 gusting 15 -9.0
2020-Jan-17 04:12 060 13 gusting 29 -9.0
2020-Jan-17 04:02 060 12 gusting 24 -9.0
2020-Jan-17 03:52 060 11 gusting 28 -9.0
2020-Jan-17 03:42 060 18 gusting 41 -9.0
2020-Jan-17 03:32 060 11 gusting 28 -8.9
2020-Jan-17 03:22 060 13 gusting 32 -8.9
2020-Jan-17 03:12 060 14 gusting 49 -8.9
2020-Jan-17 03:02 050 13 gusting 62 -8.9
2020-Jan-17 02:52 060 13 gusting 33 -8.9
2020-Jan-17 02:42 050 15 gusting 34 -8.9
2020-Jan-17 02:32 060 18 gusting 35 -8.9
2020-Jan-17 02:22 060 13 gusting 28 -8.8
2020-Jan-17 02:12 060 12 gusting 36 -8.8
2020-Jan-17 02:02 060 13 gusting 33 -8.8
2020-Jan-17 01:52 060 13 gusting 35 -8.8
2020-Jan-17 01:42 060 17 gusting 32 -8.9
2020-Jan-17 01:32 050 13 gusting 33 -8.8
2020-Jan-17 01:22 060 20 gusting 41 -8.8
2020-Jan-17 01:12 070 13 gusting 35 -8.7
2020-Jan-17 01:02 060 18 gusting 36 -8.6
2020-Jan-17 00:52 060 6 gusting 14 -8.5
2020-Jan-17 00:42 060 12 gusting 27 -8.6
2020-Jan-17 00:32 060 17 gusting 27 -8.6
2020-Jan-17 00:22 060 19 gusting 51 -8.6
2020-Jan-17 00:12 060 15 gusting 33 -8.5
2020-Jan-16 23:52 070 13 gusting 33 -8.4
2020-Jan-16 23:42 080 13 gusting 28 -8.4
2020-Jan-16 23:32 070 12 gusting 22 -8.3
2020-Jan-16 23:22 060 11 gusting 26 -8.3
2020-Jan-16 23:12 050 8 gusting 21 -8.1
2020-Jan-16 23:02 060 7 gusting 18 -8.0
2020-Jan-16 22:52 060 7 gusting 20 -7.8
2020-Jan-16 22:42 060 8 gusting 18 -7.9
2020-Jan-16 22:32 100 8 gusting 19 -7.9
2020-Jan-16 22:22 040 11 gusting 21 -8.0
2020-Jan-16 22:12 060 13 gusting 34 -8.0
2020-Jan-16 22:02 100 9 gusting 21 -7.9
2020-Jan-16 21:52 050 6 gusting 18 -7.8
2020-Jan-16 21:42 060 6 gusting 17 -7.8
2020-Jan-16 21:32 100 6 gusting 17 -7.9
2020-Jan-16 21:22 070 8 gusting 22 -8.0
2020-Jan-16 21:12 070 8 gusting 21 -8.0
2020-Jan-16 21:02 040 6 gusting 25 -7.9
2020-Jan-16 20:52 060 9 gusting 25 -8.0
2020-Jan-16 20:42 070 14 gusting 31 -8.0
2020-Jan-16 20:32 120 6 gusting 20 -8.0
2020-Jan-16 20:22 120 9 gusting 26 -8.0
2020-Jan-16 20:12 050 4 gusting 11 -8.1
2020-Jan-16 20:02 070 11 gusting 21 -8.3
2020-Jan-16 19:52 080 8 gusting 25 -8.3
2020-Jan-16 19:42 040 6 gusting 20 -8.3
2020-Jan-16 19:32 090 7 gusting 24 -8.3
2020-Jan-16 19:22 130 8 gusting 20 -8.3
2020-Jan-16 19:12 060 7 gusting 20 -8.3
2020-Jan-16 19:02 080 9 gusting 28 -8.5
2020-Jan-16 18:52 030 13 gusting 36 -8.5
2020-Jan-16 18:42 070 13 gusting 36 -8.6
2020-Jan-16 18:32 100 11 gusting 26 -8.7
2020-Jan-16 18:22 040 8 gusting 20 -8.8
2020-Jan-16 18:12 060 11 gusting 32 -8.8
2020-Jan-16 18:02 090 8 gusting 20 -8.9
2020-Jan-16 17:52 360 7 gusting 28 -9.0
2020-Jan-16 17:42 040 13 gusting 34 -9.0
2020-Jan-16 17:32 020 7 gusting 21 -9.1
2020-Jan-16 17:22 060 6 gusting 17 -9.0
2020-Jan-16 17:12 060 11 gusting 28 -9.1
2020-Jan-16 17:02 060 12 gusting 34 -9.1
2020-Jan-16 16:52 120 7 gusting 21 -9.1
2020-Jan-16 16:42 070 6 gusting 17 -9.2
2020-Jan-16 16:32 070 12 gusting 29 -9.2
2020-Jan-16 16:22 060 11 gusting 21 -9.2
2020-Jan-16 16:12 060 13 gusting 34 -9.1
2020-Jan-16 16:02 080 7 gusting 19 -9.0
2020-Jan-16 15:52 070 9 gusting 27 -9.0
2020-Jan-16 15:42 080 12 gusting 28 -9.0
2020-Jan-16 15:32 080 7 gusting 22 -9.0
2020-Jan-16 15:22 070 7 gusting 28 -8.9
2020-Jan-16 15:12 080 7 gusting 27 -8.9
2020-Jan-16 15:02 110 13 gusting 34 -8.9